首页
METAR-TAF:

METAR-TAF

机场 :

Shreveport Regional Airport

什里夫波特, 路易斯安那州, 美国

纬度: 32-26-49N, 经度: 093-49-27W, 海拔: 78米

当前天气观测

该预报发布于20分钟前的23:56 UTC
风速6节,风向南转西南
温度 22°C
湿度 73%
气压 1010 hPa
能見度: 16.1公里
散云层高于4200英尺
多云层高于18000英尺
阴天层高于25000英尺

METAR: KSHV 092356Z 20006KT 10SM SCT042 BKN180 OVC250 22/17 A2983 RMK AO2 SLP097 T02220172 10261 20222 53019

时间: 18:16 (00:16 UTC)

预报

该预报发布于40分钟前的23:36 UTC
预报有效从10日的 00点(UTC)到 10日的 24点(UTC)
风速5节,风向西南
能見度: 10公里
多云层高于10000英尺
从 10日的 0200点(UTC)
风速8节,风向北转西北
能見度: 10公里
阴天层高于12000英尺
从 10日的 0700点(UTC)
风速12节,风向
能見度: 9.7公里
阴天层高于5000英尺
小阵雨
从 10日的 1200点(UTC)
风速13节,风向
能見度: 6.4公里
阴天层高于1700英尺
阵雨
从 10日的 1400点(UTC)
风速12节,风向北转东北
能見度: 8.0公里
阴天层高于900英尺
阵雨

TAF: KSHV 092336Z 1000/1024 23005KT P6SM BKN100 FM100200 34008KT P6SM OVC120 FM100700 36012KT 6SM -SHRA OVC050 FM101200 01013KT 4SM SHRA OVC017 FM101400 02012KT 5SM SHRA OVC009

超过4000个机场的气象观测和天气预报(METAR&TAF报告)。

可查询的气象台以黄色和红色小点在地图上表示。

将鼠标移到小点上方,可查看气象台名称。

然后点击查看天气观测和预报。

如需切换地图:点击带黑十字的绿色按钮放大地图;点击带横线的绿色按钮缩小地图;或者点击绿色箭头查看邻近地区的地图。


METAR-TAF: